Pagrindinis puslapis
METAR-TAF:

METAR-TAF

Oro uostai :

San Antonio del Táchira, Venesuela

platuma: 07-51N, ilguma: 072-27W, Aukštis: 377 m

Dabartinis oras

Ataskaita buvo paskelbta 2 valandos ir 46 minutes, ne 22:00 UTC
Vėjas 8 kt iš Pietų/Pietryčių
Temperatūra
Slėgis
Matomumas 10 km arba daugiau
Su prošvaistėmis ne aukštis 2000 ft

METAR: SVSA 222200Z 2300/2400 15008KT 9999 BKN020 TX32/19Z TN23/08Z TEMPO 2300/2304 15012KT 9000 DZ 05006KT 9999 BKN020

Laikas: 20:46 (00:46 UTC)

Prognozė

Ataskaita buvo paskelbta 8 valandos ir 46 minutes, ne 16:00 UTC
Prognozė galioja nuo 22 metu 18 UTC su 23 metu 18 UTC
Vėjas 6 kt iš Pietų/Pietryčių
Matomumas 10 km arba daugiau
Išsisklaidę debesys ne aukštis 2000 ft
Laikinai
nuo 22 metu 18 UTC su 22 metu 22 UTC
Vėjas 5 kt iš Pietryčių
Matomumas: 8000 m
Su prošvaistėmis ne aukštis 2000 ft
dulksna

TAF: SVSA 221600Z 2218/2318 16006KT 9999 SCT020 TX31/19Z TN19/08Z TEMPO 2218/2222 14005KT 8000 DZ BKN020

Orai ataskaitas ir orų prognozės (METAR, TAF).

turimą stotys yra geltonos ir raudonos taškus žemėlapyje.

Perkelti pele per norėdami pamatyti stoties vardą.

Tada spustelėkite, norėdami matyti oro stebėjimo ir prognozės.

Norėdami pakeisti žemėlapį: spustelėkite ant žalios mygtukų su juodo kryžiaus žemyn,; žalią mygtuką su brūkšneliu, jei norite nutolinti; arba žalių rodyklių gretimoms žemėlapius.


METAR-TAF: